Time;durP1;ratioP1;P1;durP2;ratioP2;P2;SDS_P1;SDS_P2;PMS_P1;PMS_P2;Temp;Humidity;BMP_temperature;BMP_pressure;BME280_temperature;BME280_humidity;BME280_pressure;Samples;Min_cycle;Max_cycle;Signal;HPM_P1;HPM_P2
2023/06/17 00:02:43;;;;;;;;;;;;;;;12.05;77.06;99909.62;134220;1296;23221;-74
2023/06/17 00:05:44;;;;;;;;;;;;;;;12.05;77.35;99911.90;134280;1297;23208;-74
2023/06/17 00:08:44;;;;;;;;;;;;;;;12.08;77.86;99911.70;134210;1297;22455;-74
2023/06/17 00:11:45;;;;;;;;;;;;;;;12.10;77.87;99915.77;134067;1297;22569;-74
2023/06/17 00:14:46;;;;;;;;;;;;;;;12.11;77.90;99911.94;134154;1297;22452;-74
2023/06/17 00:17:49;;;;;;;;;;;;;;;12.13;78.13;99910.20;134265;1297;22462;-74
2023/06/17 00:20:53;;;;;;;;;;;;;;;12.13;78.20;99911.02;134214;1297;23129;-74
2023/06/17 00:23:53;;;;;;;;;;;;;;;12.14;78.26;99911.66;134180;1297;22464;-74
2023/06/17 00:26:54;;;;;;;;;;;;;;;12.12;78.61;99907.38;134243;1298;22536;-74
2023/06/17 00:29:54;;;;;;;;;;;;;;;12.13;78.79;99904.11;134144;1297;23484;-74
2023/06/17 00:32:54;;;;;;;;;;;;;;;12.14;78.98;99904.75;134230;1297;22461;-74
2023/06/17 00:35:55;;;;;;;;;;;;;;;12.14;79.43;99902.95;134093;1298;22445;-74
2023/06/17 00:38:55;;;;;;;;;;;;;;;12.14;79.67;99898.89;134202;1297;22435;-74
2023/06/17 00:41:57;;;;;;;;;;;;;;;12.13;79.60;99899.54;134189;1293;22438;-74
2023/06/17 00:44:57;;;;;;;;;;;;;;;12.12;79.98;99901.40;134307;1297;23176;-74
2023/06/17 00:47:59;;;;;;;;;;;;;;;12.15;80.10;99896.09;134264;1286;22478;-74
2023/06/17 00:51:01;;;;;;;;;;;;;;;12.16;80.05;99898.77;134232;1297;23246;-74
2023/06/17 00:54:02;;;;;;;;;;;;;;;12.16;80.12;99896.10;134209;1297;22452;-73
2023/06/17 00:57:03;;;;;;;;;;;;;;;12.15;80.08;99895.18;134116;1298;22470;-74
2023/06/17 01:00:06;;;;;;;;;;;;;;;12.14;80.12;99892.71;134121;1297;22451;-73
2023/06/17 01:03:07;;;;;;;;;;;;;;;12.12;80.18;99891.27;134155;1297;22450;-74
2023/06/17 01:06:12;;;;;;;;;;;;;;;12.11;80.42;99888.55;134092;1298;22454;-74
2023/06/17 01:09:16;;;;;;;;;;;;;;;12.08;80.65;99888.73;134249;1297;22531;-74
2023/06/17 01:12:17;;;;;;;;;;;;;;;12.05;80.91;99890.06;134245;1298;22493;-74
2023/06/17 01:15:17;;;;;;;;;;;;;;;12.05;80.81;99895.26;134204;1297;22562;-74
2023/06/17 01:18:20;;;;;;;;;;;;;;;12.03;80.95;99895.18;134031;1298;23172;-74
2023/06/17 01:21:22;;;;;;;;;;;;;;;12.03;81.02;99898.04;134194;1298;22445;-74
2023/06/17 01:24:29;;;;;;;;;;;;;;;12.04;81.19;99897.76;134154;1297;23626;-74
2023/06/17 01:27:33;;;;;;;;;;;;;;;12.04;81.16;99897.48;134168;1297;22453;-73
2023/06/17 01:30:33;;;;;;;;;;;;;;;12.06;81.58;99894.77;134300;1297;22442;-74
2023/06/17 01:33:34;;;;;;;;;;;;;;;12.05;81.69;99896.84;134181;1297;22453;-74
2023/06/17 01:36:36;;;;;;;;;;;;;;;12.03;81.55;99895.84;134062;1297;22559;-74
2023/06/17 01:39:39;;;;;;;;;;;;;;;12.01;81.42;99892.03;134100;1298;22456;-74
2023/06/17 01:42:43;;;;;;;;;;;;;;;11.98;81.37;99889.48;134238;1297;23231;-74
2023/06/17 01:45:45;;;;;;;;;;;;;;;11.97;81.40;99892.14;134151;1297;22433;-74
2023/06/17 01:48:46;;;;;;;;;;;;;;;11.95;81.41;99889.40;134123;1296;23201;-74
2023/06/17 01:51:46;;;;;;;;;;;;;;;11.94;81.29;99888.48;134286;1297;22433;-73
2023/06/17 01:54:47;;;;;;;;;;;;;;;11.92;81.31;99887.77;134137;1297;22461;-74
2023/06/17 01:57:47;;;;;;;;;;;;;;;11.90;81.11;99889.62;134244;1297;22429;-74
2023/06/17 02:00:48;;;;;;;;;;;;;;;11.85;81.06;99890.01;134202;1297;22454;-74
2023/06/17 02:03:48;;;;;;;;;;;;;;;11.81;81.20;99891.69;134282;1296;23336;-73
2023/06/17 02:06:51;;;;;;;;;;;;;;;11.80;81.34;99893.39;134246;1297;23361;-74
2023/06/17 02:09:52;;;;;;;;;;;;;;;11.83;81.67;99889.73;134046;1298;22412;-74
2023/06/17 02:12:52;;;;;;;;;;;;;;;11.82;81.64;99893.41;134181;1297;22428;-74
2023/06/17 02:15:53;;;;;;;;;;;;;;;11.76;81.54;99893.56;134192;1297;22442;-74
2023/06/17 02:18:54;;;;;;;;;;;;;;;11.72;81.34;99896.86;134061;1298;23099;-74
2023/06/17 02:21:55;;;;;;;;;;;;;;;11.68;81.19;99894.30;134199;1297;22418;-73
2023/06/17 02:24:55;;;;;;;;;;;;;;;11.68;81.53;99895.21;134197;1297;22444;-74
2023/06/17 02:27:56;;;;;;;;;;;;;;;11.67;81.67;99900.96;134293;1297;22446;-73
2023/06/17 02:30:56;;;;;;;;;;;;;;;11.65;81.44;99898.48;134290;1298;22435;-74
2023/06/17 02:33:57;;;;;;;;;;;;;;;11.64;81.35;99901.23;134106;1297;22441;-74
2023/06/17 02:36:57;;;;;;;;;;;;;;;11.64;81.38;99898.45;134089;1298;22420;-74
2023/06/17 02:39:58;;;;;;;;;;;;;;;11.64;81.56;99898.45;134084;1290;22518;-74
2023/06/17 02:42:59;;;;;;;;;;;;;;;11.65;81.99;99903.98;134093;1298;23113;-74
2023/06/17 02:45:59;;;;;;;;;;;;;;;11.67;82.08;99900.39;134069;1297;22444;-74
2023/06/17 02:49:00;;;;;;;;;;;;;;;11.69;82.23;99896.83;134160;1297;22474;-74
2023/06/17 02:52:00;;;;;;;;;;;;;;;11.71;82.28;99901.63;134245;1297;23205;-74
2023/06/17 02:55:02;;;;;;;;;;;;;;;11.69;82.30;99900.42;134238;1297;22527;-74
2023/06/17 02:58:03;;;;;;;;;;;;;;;11.69;82.40;99900.53;134139;1297;22498;-74
2023/06/17 03:01:11;;;;;;;;;;;;;;;11.69;82.22;99903.92;134120;1296;23072;-74
2023/06/17 03:04:12;;;;;;;;;;;;;;;11.68;82.19;99901.17;134126;1297;22454;-74
2023/06/17 03:07:15;;;;;;;;;;;;;;;11.74;82.88;99899.77;134056;1297;22445;-74
2023/06/17 03:10:17;;;;;;;;;;;;;;;11.83;83.23;99897.73;134352;1296;23294;-74
2023/06/17 03:13:21;;;;;;;;;;;;;;;11.89;83.45;99893.61;134130;1295;22460;-74
2023/06/17 03:16:25;;;;;;;;;;;;;;;11.95;83.37;99889.23;134338;1297;22515;-74
2023/06/17 03:19:26;;;;;;;;;;;;;;;12.01;83.44;99891.67;134168;1291;23222;-74
2023/06/17 03:22:26;;;;;;;;;;;;;;;12.08;83.75;99890.33;134134;1298;23193;-74
2023/06/17 03:25:27;;;;;;;;;;;;;;;12.14;83.92;99891.24;134074;1298;22524;-74
2023/06/17 03:28:27;;;;;;;;;;;;;;;12.19;83.79;99894.30;134226;1296;23675;-74
2023/06/17 03:31:29;;;;;;;;;;;;;;;12.24;83.75;99896.55;134109;1298;22433;-74
2023/06/17 03:34:30;;;;;;;;;;;;;;;12.30;83.89;99897.28;134122;1298;23254;-74
2023/06/17 03:37:30;;;;;;;;;;;;;;;12.36;84.02;99895.49;134001;1297;22435;-74
2023/06/17 03:40:31;;;;;;;;;;;;;;;12.44;84.19;99888.10;134319;1297;22531;-74
2023/06/17 03:43:33;;;;;;;;;;;;;;;12.55;84.21;99887.72;134096;1288;22499;-74
2023/06/17 03:46:33;;;;;;;;;;;;;;;12.68;84.45;99887.02;134187;1297;22477;-74
2023/06/17 03:49:35;;;;;;;;;;;;;;;12.81;84.54;99886.55;134033;1298;137837;-74
2023/06/17 03:52:35;;;;;;;;;;;;;;;12.96;84.56;99890.51;134170;1297;23161;-74
2023/06/17 03:55:36;;;;;;;;;;;;;;;13.14;84.49;99890.48;134312;1297;22433;-74
2023/06/17 03:58:37;;;;;;;;;;;;;;;13.26;84.45;99893.13;134121;1298;23309;-74
2023/06/17 04:01:38;;;;;;;;;;;;;;;13.36;84.33;99893.65;134286;1297;23138;-74
2023/06/17 04:04:39;;;;;;;;;;;;;;;13.42;84.11;99892.04;134243;1297;22467;-74
2023/06/17 04:07:42;;;;;;;;;;;;;;;13.50;84.20;99894.60;134045;1297;22468;-74
2023/06/17 04:10:42;;;;;;;;;;;;;;;13.56;83.92;99892.27;134165;1297;23110;-74
2023/06/17 04:13:42;;;;;;;;;;;;;;;13.60;83.62;99892.85;134209;1297;22451;-74
2023/06/17 04:16:43;;;;;;;;;;;;;;;13.75;84.07;99892.20;134153;1297;24493;-74
2023/06/17 04:19:44;;;;;;;;;;;;;;;14.21;84.66;99891.12;134138;1298;23006;-74
2023/06/17 04:22:44;;;;;;;;;;;;;;;14.86;84.55;99886.42;134290;1297;22448;-73
2023/06/17 04:25:45;;;;;;;;;;;;;;;15.39;83.79;99885.20;134145;1296;22514;-73
2023/06/17 04:28:47;;;;;;;;;;;;;;;15.83;83.36;99888.98;134076;1298;23140;-73
2023/06/17 04:31:47;;;;;;;;;;;;;;;16.25;82.80;99889.95;134043;1297;22461;-73
2023/06/17 04:34:48;;;;;;;;;;;;;;;16.77;82.34;99888.04;134221;1297;22475;-73
2023/06/17 04:37:53;;;;;;;;;;;;;;;17.28;81.40;99888.89;134067;1299;22405;-73
2023/06/17 04:40:54;;;;;;;;;;;;;;;17.69;80.46;99887.02;134122;1298;22530;-73
2023/06/17 04:43:57;;;;;;;;;;;;;;;18.03;79.48;99886.48;134081;1290;22571;-73
2023/06/17 04:46:59;;;;;;;;;;;;;;;18.41;78.96;99883.27;134031;1298;23551;-73
2023/06/17 04:50:00;;;;;;;;;;;;;;;18.87;78.23;99881.48;134093;1297;22440;-73
2023/06/17 04:53:04;;;;;;;;;;;;;;;19.20;77.03;99880.70;134115;1297;23164;-73
2023/06/17 04:56:06;;;;;;;;;;;;;;;19.46;76.19;99880.48;134045;1298;22440;-73
2023/06/17 04:59:07;;;;;;;;;;;;;;;19.81;75.72;99881.92;134013;1297;22431;-73
2023/06/17 05:02:08;;;;;;;;;;;;;;;20.26;75.33;99878.65;134237;1297;22460;-73
2023/06/17 05:05:08;;;;;;;;;;;;;;;20.64;74.03;99882.87;133935;1298;22434;-72
2023/06/17 05:08:09;;;;;;;;;;;;;;;20.51;72.35;99883.41;133953;1297;22433;-73
2023/06/17 05:11:09;;;;;;;;;;;;;;;20.26;71.99;99890.92;134029;1298;23540;-73
2023/06/17 05:14:12;;;;;;;;;;;;;;;20.05;71.57;99893.11;133983;1298;22417;-73
2023/06/17 05:17:15;;;;;;;;;;;;;;;19.73;71.51;99892.91;133988;1299;22443;-73
2023/06/17 05:20:17;;;;;;;;;;;;;;;19.66;71.55;99893.66;134040;1297;22457;-73
2023/06/17 05:23:19;;;;;;;;;;;;;;;19.65;71.50;99893.63;133939;1300;23162;-73
2023/06/17 05:26:19;;;;;;;;;;;;;;;19.70;71.15;99895.41;134055;1298;22475;-73
2023/06/17 05:29:20;;;;;;;;;;;;;;;19.54;70.58;99896.11;134006;1297;22452;-73
2023/06/17 05:32:22;;;;;;;;;;;;;;;19.57;70.78;99889.12;133952;1290;22454;-73
2023/06/17 05:35:24;;;;;;;;;;;;;;;19.68;70.64;99884.27;133953;1298;22915;-73
2023/06/17 05:38:25;;;;;;;;;;;;;;;19.75;70.36;99883.89;133926;1298;22443;-73
2023/06/17 05:41:26;;;;;;;;;;;;;;;19.78;69.88;99884.84;134050;1298;22421;-73
2023/06/17 05:44:30;;;;;;;;;;;;;;;19.70;69.66;99885.02;133968;1290;22423;-73
2023/06/17 05:47:30;;;;;;;;;;;;;;;19.69;69.68;99887.48;134070;1291;22451;-73
2023/06/17 05:50:31;;;;;;;;;;;;;;;19.75;69.53;99883.08;133976;1299;22469;-73
2023/06/17 05:53:34;;;;;;;;;;;;;;;19.63;68.84;99880.89;134019;1300;22519;-74
2023/06/17 05:56:34;;;;;;;;;;;;;;;19.37;68.86;99884.80;133919;1297;22428;-73
2023/06/17 05:59:36;;;;;;;;;;;;;;;19.46;69.33;99889.30;134035;1297;22558;-73
2023/06/17 06:02:36;;;;;;;;;;;;;;;19.71;69.24;99888.05;134068;1300;22424;-73
2023/06/17 06:05:37;;;;;;;;;;;;;;;19.70;68.87;99888.90;134137;1297;22465;-73
2023/06/17 06:08:37;;;;;;;;;;;;;;;19.56;68.24;99892.17;134167;1297;22466;-73
2023/06/17 06:11:37;;;;;;;;;;;;;;;19.74;68.88;99891.61;134168;1297;22482;-77
2023/06/17 06:14:39;;;;;;;;;;;;;;;20.27;69.00;99890.15;134180;1298;23372;-77
2023/06/17 06:17:40;;;;;;;;;;;;;;;20.54;68.35;99890.60;134190;1297;22483;-76
2023/06/17 06:20:43;;;;;;;;;;;;;;;20.59;67.77;99896.64;134050;1300;22453;-79
2023/06/17 06:23:44;;;;;;;;;;;;;;;20.74;67.61;99896.61;134254;1297;22530;-76
2023/06/17 06:26:45;;;;;;;;;;;;;;;20.77;67.13;99894.95;134046;1297;22766;-80
2023/06/17 06:29:46;;;;;;;;;;;;;;;20.83;66.66;99899.65;134016;1297;23095;-79
2023/06/17 06:32:47;;;;;;;;;;;;;;;20.86;66.35;99905.44;134070;1297;22442;-79
2023/06/17 06:35:49;;;;;;;;;;;;;;;20.92;65.77;99907.71;134016;1298;22457;-80
2023/06/17 06:38:53;;;;;;;;;;;;;;;21.00;65.48;99908.34;134066;1297;22782;-79
2023/06/17 06:41:54;;;;;;;;;;;;;;;21.03;65.43;99905.33;134175;1296;22453;-78
2023/06/17 06:45:13;;;;;;;;;;;;;;;21.06;65.28;99907.10;134206;1297;22410;-78
2023/06/17 06:48:13;;;;;;;;;;;;;;;21.04;65.15;99906.54;134191;1297;23253;-78
2023/06/17 06:51:14;;;;;;;;;;;;;;;20.92;64.86;99908.89;134188;1297;23773;-80
2023/06/17 06:54:15;;;;;;;;;;;;;;;20.57;64.60;99909.36;134012;1297;22453;-77
2023/06/17 06:57:15;;;;;;;;;;;;;;;20.44;65.02;99912.51;134042;1297;22521;-80
2023/06/17 07:00:17;;;;;;;;;;;;;;;20.36;65.02;99913.77;134007;1297;22462;-80
2023/06/17 07:03:18;;;;;;;;;;;;;;;20.34;65.10;99914.02;134058;1288;22500;-80
2023/06/17 07:06:19;;;;;;;;;;;;;;;20.28;65.26;99911.52;134048;1296;22566;-81
2023/06/17 07:09:19;;;;;;;;;;;;;;;20.28;65.48;99907.95;134175;1297;22525;-79
2023/06/17 07:12:20;;;;;;;;;;;;;;;20.69;65.52;99904.04;134021;1297;22477;-78
2023/06/17 07:15:23;;;;;;;;;;;;;;;21.06;65.28;99905.27;134015;1297;22450;-80
2023/06/17 07:18:24;;;;;;;;;;;;;;;21.61;64.99;99907.14;134248;1297;22570;-80
2023/06/17 07:21:24;;;;;;;;;;;;;;;22.11;63.95;99910.91;134150;1297;23216;-80
2023/06/17 07:24:25;;;;;;;;;;;;;;;22.39;63.01;99908.15;134035;1295;22470;-80
2023/06/17 07:27:26;;;;;;;;;;;;;;;22.78;61.95;99914.05;134078;1300;23085;-77
2023/06/17 07:30:30;;;;;;;;;;;;;;;23.21;60.90;99917.54;134269;1297;25243;-81
2023/06/17 07:33:31;;;;;;;;;;;;;;;23.56;60.53;99917.64;134172;1296;22555;-81
2023/06/17 07:36:31;;;;;;;;;;;;;;;23.53;59.50;99914.87;134225;1297;22444;-80
2023/06/17 07:39:35;;;;;;;;;;;;;;;23.14;58.52;99911.83;134022;1297;22517;-80
2023/06/17 07:42:38;;;;;;;;;;;;;;;22.78;58.50;99915.58;134252;1297;22449;-81
2023/06/17 07:45:44;;;;;;;;;;;;;;;22.54;58.97;99916.02;134180;1296;22571;-80
2023/06/17 07:48:45;;;;;;;;;;;;;;;22.30;58.87;99917.38;134216;1297;22491;-82
2023/06/17 07:51:51;;;;;;;;;;;;;;;22.12;59.11;99920.64;134209;1297;22434;-82
2023/06/17 07:54:52;;;;;;;;;;;;;;;22.01;59.30;99916.90;134150;1297;22475;-79
2023/06/17 07:57:53;;;;;;;;;;;;;;;21.94;59.34;99914.38;134251;1297;22495;-81
2023/06/17 08:00:56;;;;;;;;;;;;;;;22.00;59.50;99912.52;134260;1297;22454;-77
2023/06/17 08:03:56;;;;;;;;;;;;;;;22.15;59.59;99908.86;134235;1291;22462;-77
2023/06/17 08:06:57;;;;;;;;;;;;;;;22.20;59.13;99907.93;134191;1297;22499;-75
2023/06/17 08:09:57;;;;;;;;;;;;;;;22.29;59.03;99909.20;134282;1297;22432;-80
2023/06/17 08:13:03;;;;;;;;;;;;;;;22.40;58.44;99908.70;134162;1296;22426;-79
2023/06/17 08:16:09;;;;;;;;;;;;;;;22.52;58.02;99909.51;134169;1297;23120;-79
2023/06/17 08:19:12;;;;;;;;;;;;;;;22.54;57.80;99908.35;134182;1297;23164;-83
2023/06/17 08:22:12;;;;;;;;;;;;;;;22.59;57.96;99908.89;134215;1297;22461;-78
2023/06/17 08:25:15;;;;;;;;;;;;;;;22.83;57.52;99908.15;134233;1297;22466;-76
2023/06/17 08:28:21;;;;;;;;;;;;;;;22.94;57.26;99907.86;134195;1297;22459;-84
2023/06/17 08:31:26;;;;;;;;;;;;;;;23.01;57.38;99902.17;134234;1297;22449;-77
2023/06/17 08:34:35;;;;;;;;;;;;;;;22.96;57.23;99903.73;134199;1297;22459;-77
2023/06/17 08:37:40;;;;;;;;;;;;;;;22.85;56.95;99898.17;134264;1297;22435;-77
2023/06/17 08:40:47;;;;;;;;;;;;;;;22.83;57.03;99900.27;134203;1297;22439;-77
2023/06/17 08:43:51;;;;;;;;;;;;;;;23.09;56.87;99899.27;134216;1298;22556;-79
2023/06/17 08:46:53;;;;;;;;;;;;;;;23.33;56.28;99898.65;134238;1297;22476;-74
2023/06/17 08:49:59;;;;;;;;;;;;;;;23.35;55.95;99897.05;134070;1298;22574;-75
2023/06/17 08:53:00;;;;;;;;;;;;;;;23.45;55.45;99899.25;134232;1297;22462;-79
2023/06/17 08:56:03;;;;;;;;;;;;;;;23.46;55.02;99899.96;134186;1297;23078;-82
2023/06/17 08:59:06;;;;;;;;;;;;;;;23.39;55.08;99896.45;134199;1298;22445;-87
2023/06/17 09:02:15;;;;;;;;;;;;;;;23.49;55.06;99893.33;134183;1297;23151;-86
2023/06/17 09:05:16;;;;;;;;;;;;;;;23.68;54.94;99896.44;134232;1297;22500;-79
2023/06/17 09:08:17;;;;;;;;;;;;;;;23.66;54.72;99895.43;134172;1297;23142;-79
2023/06/17 09:11:20;;;;;;;;;;;;;;;24.04;54.79;99896.86;134175;1291;22503;-80
2023/06/17 09:14:27;;;;;;;;;;;;;;;24.32;53.90;99892.66;134219;1297;23287;-82
2023/06/17 09:17:31;;;;;;;;;;;;;;;24.62;53.51;99890.05;134216;1298;23156;-82
2023/06/17 09:20:40;;;;;;;;;;;;;;;24.98;53.47;99893.48;134101;1297;22457;-88
2023/06/17 09:23:50;;;;;;;;;;;;;;;25.27;51.96;99898.02;134266;1297;22451;-82
2023/06/17 09:26:54;;;;;;;;;;;;;;;25.38;51.56;99894.89;134226;1297;22498;-82
2023/06/17 09:30:06;;;;;;;;;;;;;;;25.37;51.49;99896.74;134250;1298;23279;-88
2023/06/17 09:33:22;;;;;;;;;;;;;;;25.63;50.93;99891.71;134244;1297;22399;-79
2023/06/17 09:36:28;;;;;;;;;;;;;;;25.83;49.99;99889.05;134222;1297;22479;-78
2023/06/17 09:39:32;;;;;;;;;;;;;;;26.13;49.93;99887.71;134181;1304;22472;-79
2023/06/17 09:42:35;;;;;;;;;;;;;;;26.32;49.50;99888.95;134235;1297;23130;-80
2023/06/17 09:45:35;;;;;;;;;;;;;;;26.24;49.01;99887.35;134168;1297;23360;-77
2023/06/17 09:48:39;;;;;;;;;;;;;;;25.85;48.23;99888.92;134122;1297;22486;-78
2023/06/17 09:51:42;;;;;;;;;;;;;;;25.81;49.07;99880.34;134191;1297;22526;-77
2023/06/17 09:54:49;;;;;;;;;;;;;;;26.11;48.87;99874.55;134112;1297;22563;-77
2023/06/17 09:57:53;;;;;;;;;;;;;;;26.24;48.10;99874.36;134115;1297;23329;-77
2023/06/17 10:00:56;;;;;;;;;;;;;;;26.35;48.08;99877.58;134237;1297;22462;-77
2023/06/17 10:04:00;;;;;;;;;;;;;;;26.64;48.03;99874.34;134173;1297;22473;-77
2023/06/17 10:07:01;;;;;;;;;;;;;;;26.87;47.36;99875.49;134188;1297;23162;-77
2023/06/17 10:10:02;;;;;;;;;;;;;;;27.02;46.81;99868.65;134072;1297;22552;-76
2023/06/17 10:13:07;;;;;;;;;;;;;;;27.08;46.65;99864.14;134202;1298;22441;-79
2023/06/17 10:16:12;;;;;;;;;;;;;;;27.12;46.56;99863.95;134267;1296;22463;-77
2023/06/17 10:19:16;;;;;;;;;;;;;;;26.88;46.08;99864.48;134237;1298;23060;-77
2023/06/17 10:22:21;;;;;;;;;;;;;;;26.58;46.09;99865.13;134254;1297;22558;-78
2023/06/17 10:25:26;;;;;;;;;;;;;;;26.62;46.15;99862.02;134198;1297;23271;-77
2023/06/17 10:28:41;;;;;;;;;;;;;;;26.72;45.92;99858.25;134293;1297;22659;-80
2023/06/17 10:31:42;;;;;;;;;;;;;;;26.79;45.96;99857.34;134150;1302;23140;-80
2023/06/17 10:35:06;;;;;;;;;;;;;;;26.77;45.42;99858.45;134239;1298;23291;-79
2023/06/17 10:38:07;;;;;;;;;;;;;;;26.25;44.86;99863.32;134222;1297;23492;-78
2023/06/17 10:41:08;;;;;;;;;;;;;;;25.52;44.87;99861.55;134234;1298;22454;-78
2023/06/17 10:44:20;;;;;;;;;;;;;;;25.03;45.44;99860.88;134196;1301;22454;-77
2023/06/17 10:47:22;;;;;;;;;;;;;;;24.67;45.79;99858.44;134222;1304;22537;-78
2023/06/17 10:50:24;;;;;;;;;;;;;;;24.35;45.82;99860.61;134193;1297;22478;-78
2023/06/17 10:53:29;;;;;;;;;;;;;;;24.12;45.85;99861.57;134215;1297;22435;-78
2023/06/17 10:56:30;;;;;;;;;;;;;;;23.93;46.22;99860.02;134247;1297;22471;-78
2023/06/17 10:59:32;;;;;;;;;;;;;;;23.92;46.63;99861.67;134265;1298;22444;-78
2023/06/17 11:02:32;;;;;;;;;;;;;;;24.16;46.94;99855.70;134258;1297;22456;-79
2023/06/17 11:05:34;;;;;;;;;;;;;;;24.27;47.24;99855.16;134224;1298;22451;-77
2023/06/17 11:08:37;;;;;;;;;;;;;;;24.19;47.22;99857.50;134208;1296;22446;-78
2023/06/17 11:11:38;;;;;;;;;;;;;;;24.32;48.07;99852.75;134276;1297;22541;-80
2023/06/17 11:14:39;;;;;;;;;;;;;;;24.77;47.94;99848.70;134131;1297;22446;-77
2023/06/17 11:17:42;;;;;;;;;;;;;;;25.13;47.74;99848.09;134094;1297;22633;-78
2023/06/17 11:20:43;;;;;;;;;;;;;;;25.39;47.12;99848.45;134195;1297;22434;-78
2023/06/17 11:23:44;;;;;;;;;;;;;;;25.26;46.81;99847.38;134213;1297;23091;-77
2023/06/17 11:26:44;;;;;;;;;;;;;;;25.24;46.93;99847.70;134275;1298;22442;-80
2023/06/17 11:29:46;;;;;;;;;;;;;;;25.38;46.68;99848.89;134224;1299;22459;-81
2023/06/17 11:32:48;;;;;;;;;;;;;;;25.59;46.78;99843.50;134195;1297;23129;-78
2023/06/17 11:35:50;;;;;;;;;;;;;;;25.83;46.40;99840.52;134207;1301;23187;-79
2023/06/17 11:38:52;;;;;;;;;;;;;;;25.98;46.24;99835.16;134279;1297;22444;-77
2023/06/17 11:41:52;;;;;;;;;;;;;;;26.09;45.84;99839.11;134212;1296;23320;-76
2023/06/17 11:44:53;;;;;;;;;;;;;;;26.02;45.19;99841.41;134189;1302;22479;-79
2023/06/17 11:47:54;;;;;;;;;;;;;;;25.72;44.97;99836.45;134169;1297;22454;-78
2023/06/17 11:50:59;;;;;;;;;;;;;;;25.59;45.33;99833.79;134169;1296;22476;-79
2023/06/17 11:54:04;;;;;;;;;;;;;;;25.61;45.52;99832.42;134212;1299;22594;-73
2023/06/17 11:57:04;;;;;;;;;;;;;;;25.53;45.31;99832.92;134257;1299;22451;-73
2023/06/17 12:00:12;;;;;;;;;;;;;;;25.32;44.83;99830.42;134187;1301;23256;-74
2023/06/17 12:03:12;;;;;;;;;;;;;;;24.98;44.78;99827.54;134092;1304;22432;-71
2023/06/17 12:06:19;;;;;;;;;;;;;;;24.56;44.94;99821.80;134163;1298;22471;-70
2023/06/17 12:09:21;;;;;;;;;;;;;;;24.29;45.05;99820.79;133910;1300;22436;-73
2023/06/17 12:12:29;;;;;;;;;;;;;;;24.07;45.05;99821.29;134157;1304;22454;-80
2023/06/17 12:15:30;;;;;;;;;;;;;;;23.92;45.12;99824.89;134186;1297;22456;-85
2023/06/17 12:18:31;;;;;;;;;;;;;;;23.83;45.39;99824.83;134242;1298;22441;-86
2023/06/17 12:21:32;;;;;;;;;;;;;;;23.81;45.64;99824.33;134199;1297;22478;-82
2023/06/17 12:24:32;;;;;;;;;;;;;;;23.89;46.16;99825.94;134238;1297;22567;-83
2023/06/17 12:27:33;;;;;;;;;;;;;;;24.06;46.15;99823.34;134150;1298;22494;-83
2023/06/17 12:30:34;;;;;;;;;;;;;;;24.16;45.78;99820.03;134139;1297;22449;-74
2023/06/17 12:33:35;;;;;;;;;;;;;;;24.15;45.71;99822.03;134121;1298;22513;-77
2023/06/17 12:36:36;;;;;;;;;;;;;;;24.20;45.84;99825.90;134167;1297;23148;-79
2023/06/17 12:39:40;;;;;;;;;;;;;;;24.19;45.52;99820.52;134242;1298;23198;-89
2023/06/17 12:42:43;;;;;;;;;;;;;;;24.13;45.60;99819.80;134161;1298;22415;-85
2023/06/17 12:45:46;;;;;;;;;;;;;;;24.05;45.61;99819.05;134155;1303;22491;-85
2023/06/17 12:48:50;;;;;;;;;;;;;;;24.04;45.48;99814.33;134205;1297;23299;-83
2023/06/17 12:52:03;;;;;;;;;;;;;;;23.75;45.47;99808.68;134193;1298;22459;-88
2023/06/17 12:55:09;;;;;;;;;;;;;;;23.71;45.78;99806.96;134173;1299;22447;-78
2023/06/17 12:58:10;;;;;;;;;;;;;;;23.74;45.75;99807.37;134055;1299;22461;-83
2023/06/17 13:01:13;;;;;;;;;;;;;;;23.75;46.14;99803.76;134059;1298;22464;-87
2023/06/17 13:04:17;;;;;;;;;;;;;;;23.80;46.15;99800.87;134224;1297;22515;-85
2023/06/17 13:07:21;;;;;;;;;;;;;;;24.03;46.57;99798.23;134218;1297;22430;-85
2023/06/17 13:10:22;;;;;;;;;;;;;;;24.43;46.62;99788.02;134192;1298;22532;-86
2023/06/17 13:13:30;;;;;;;;;;;;;;;24.69;46.24;99786.34;134189;1297;22471;-81
2023/06/17 13:16:31;;;;;;;;;;;;;;;24.77;45.84;99785.71;134219;1298;22530;-81
2023/06/17 13:19:32;;;;;;;;;;;;;;;24.92;45.39;99789.98;134172;1298;22476;-84
2023/06/17 13:22:33;;;;;;;;;;;;;;;25.09;45.17;99789.13;134157;1302;22424;-86
2023/06/17 13:25:39;;;;;;;;;;;;;;;25.14;44.65;99784.09;134179;1298;22478;-82
2023/06/17 13:28:39;;;;;;;;;;;;;;;25.01;44.71;99782.98;134222;1297;22466;-84
2023/06/17 13:31:40;;;;;;;;;;;;;;;24.97;44.91;99779.84;134139;1298;22574;-83
2023/06/17 13:34:46;;;;;;;;;;;;;;;24.96;45.06;99781.13;134168;1299;22541;-82
2023/06/17 13:37:47;;;;;;;;;;;;;;;24.89;44.96;99778.52;134138;1299;23048;-86
2023/06/17 13:40:47;;;;;;;;;;;;;;;24.82;45.39;99777.64;134253;1298;22474;-84
2023/06/17 13:43:48;;;;;;;;;;;;;;;24.77;45.21;99772.91;134025;1297;22464;-80
2023/06/17 13:46:48;;;;;;;;;;;;;;;24.79;45.18;99768.85;134156;1298;22478;-81
2023/06/17 13:49:49;;;;;;;;;;;;;;;25.01;45.13;99770.55;134214;1296;22440;-84
2023/06/17 13:52:49;;;;;;;;;;;;;;;25.11;44.51;99773.98;134217;1297;22398;-82
2023/06/17 13:55:52;;;;;;;;;;;;;;;24.99;44.16;99775.98;134197;1301;22514;-83
2023/06/17 13:58:52;;;;;;;;;;;;;;;24.80;44.26;99774.93;134225;1298;22509;-86
2023/06/17 14:01:53;;;;;;;;;;;;;;;24.72;44.37;99776.98;134252;1298;22528;-76
2023/06/17 14:04:54;;;;;;;;;;;;;;;24.62;44.35;99776.08;134219;1297;22582;-73
2023/06/17 14:07:54;;;;;;;;;;;;;;;24.54;44.69;99781.02;134168;1298;22430;-74
2023/06/17 14:10:55;;;;;;;;;;;;;;;24.65;44.36;99774.73;134142;1298;22459;-76
2023/06/17 14:13:55;;;;;;;;;;;;;;;24.68;44.50;99772.63;134220;1298;23102;-76
2023/06/17 14:16:57;;;;;;;;;;;;;;;24.66;44.21;99768.88;134176;1297;22516;-77
2023/06/17 14:19:57;;;;;;;;;;;;;;;24.53;44.35;99770.00;134236;1297;22449;-77
2023/06/17 14:22:59;;;;;;;;;;;;;;;24.44;44.48;99777.05;134164;1297;22513;-77
2023/06/17 14:26:02;;;;;;;;;;;;;;;24.39;44.52;99771.00;134191;1297;23229;-78
2023/06/17 14:29:03;;;;;;;;;;;;;;;24.35;44.68;99771.09;134159;1297;23123;-75
2023/06/17 14:32:04;;;;;;;;;;;;;;;24.35;44.79;99771.46;134161;1296;22455;-70
2023/06/17 14:35:08;;;;;;;;;;;;;;;24.40;44.91;99775.39;134164;1297;22487;-78
2023/06/17 14:38:08;;;;;;;;;;;;;;;24.45;44.79;99772.83;134194;1298;22449;-76
2023/06/17 14:41:09;;;;;;;;;;;;;;;24.55;44.77;99774.44;134139;1297;22451;-69
2023/06/17 14:44:09;;;;;;;;;;;;;;;24.63;44.45;99771.48;134104;1297;22560;-71
2023/06/17 14:47:13;;;;;;;;;;;;;;;24.73;44.69;99767.59;134158;1297;22499;-70
2023/06/17 14:50:13;;;;;;;;;;;;;;;24.75;44.33;99769.64;134193;1296;22451;-74
2023/06/17 14:53:27;;;;;;;;;;;;;;;24.70;44.26;99768.98;134164;1297;22463;-73
2023/06/17 14:56:29;;;;;;;;;;;;;;;24.59;43.90;99768.65;134180;1298;22432;-72
2023/06/17 14:59:29;;;;;;;;;;;;;;;24.48;43.76;99769.33;134199;1298;22447;-73
2023/06/17 15:02:48;;;;;;;;;;;;;;;24.44;43.91;99770.23;134170;1297;22443;-74
2023/06/17 15:05:49;;;;;;;;;;;;;;;24.36;43.87;99766.60;134098;1297;22468;-74
2023/06/17 15:08:53;;;;;;;;;;;;;;;24.27;43.72;99768.89;134115;1297;22462;-72
2023/06/17 15:12:07;;;;;;;;;;;;;;;24.16;43.70;99763.27;134210;1300;22502;-77
2023/06/17 15:15:09;;;;;;;;;;;;;;;24.03;43.73;99766.95;134206;1296;22507;-77
2023/06/17 15:18:12;;;;;;;;;;;;;;;23.91;44.29;99767.06;134232;1298;22486;-75
2023/06/17 15:21:12;;;;;;;;;;;;;;;23.83;44.34;99772.60;134173;1297;22425;-79
2023/06/17 15:24:13;;;;;;;;;;;;;;;23.72;44.44;99771.81;134081;1292;22546;-76
2023/06/17 15:27:16;;;;;;;;;;;;;;;23.56;44.70;99772.52;134131;1296;22441;-74
2023/06/17 15:30:16;;;;;;;;;;;;;;;23.32;44.83;99771.64;134117;1297;22494;-75
2023/06/17 15:33:17;;;;;;;;;;;;;;;23.11;45.09;99771.52;134073;1297;22439;-76
2023/06/17 15:36:17;;;;;;;;;;;;;;;22.98;45.54;99776.92;134155;1297;23467;-74